CheckWX is a tool to help pilots better visualize weather data.  It is not intended as a substitute for an official pre-flight weather briefing.

19:58:11 UTC

BIHN TAF
Hornafjordur Airport
Hornafjordur, Iceland
TAF BIHN 251015Z 2511/2520 19005KT 9999 BKN055

Jun-25@
11:00 UTC

Jun-25 @ 11:00 UTC

Jun-25@
20:00 UTC

Jun-25 @ 20:00 UTC

TAF BIHN 251015Z 2511/2520 19005KT 9999 BKN055
Wind
  • 190° at 5 KTS
Cloud Levels
  • Broken at 5,500' AGL